Airfield :
LOGIN :

Register | Disclaimer

   EN    FR    IT 

 










Legend :    VFR   Marginal VFR   IFR   Intensive IFR   Very Intensive IFR
Visi :
Ceiling :
>= 8 km
>= 3000ft
5 to 8 km
1000 to 3000 ft
1500m to 5 km
500 to 1000 ft
800 to 1500m
200 to 500 ft
< 800m
< 200 ft
Symbols :   Thunderstorms  Fog  Heavy snow  Heavy precipitations  Wind > 20 kt
SIGMETs :     Misc.  Thunderstorms  Icing  Turbulence  Mountain Waves  Volcanic Ashes







- Airport Elevation : 9 ft
- IATA code : MIR


DTMB - Habib Bourguliba Int. Monastir

CURRENT METAR :
  • 161200Z 08009KT 9999 SCT026 16/09 Q1022 NOSIG

EXPIRED METARs :
  • 161130Z 08007KT 9999 FEW026 17/09 Q1023 NOSIG
  • 161100Z 08005KT 050V120 CAVOK 17/09 Q1023 NOSIG
  • 161030Z 14006KT 080V210 CAVOK 15/08 Q1024 NOSIG
  • 161000Z 08003KT 050V120 9999 FEW026 15/08 Q1024 NOSIG
  • 160930Z 08002KT 9999 FEW026 13/08 Q1024 NOSIG

TAF TAF DTMB
Valid from the 16 at 12:00 until the 17 at 12:00 UTC


161150Z 1612/1712 11010KT 9999 FEW026
BECMG 1618/1620 18005KT
PROB30
TEMPO 1705/1707 4000 BR
BECMG 1707/1709 VRB03KT 8000 FEW020
No reported NOTAMs for that airfield.



MET'MAP, your aeronautical weather chart ! - Copyright ORBIFLY December 2007 - Disclaimer

ORBIFLY MET'MAP TEAM :

Programming & Development : Alexandra Zaïnal
Concept & Development : Baudouin d'Aumeries
Co-Development & Prog : Marc-Olivier Méhu
Technical & hardware support : Manuel Goepfert

Contact : metmap@orbifly.com




SOURCES & CREDITS :

   NOAA